createdAt,value
2022-08-12T00:00:17.821Z,0.00
2022-08-12T00:01:17.953Z,0.00
2022-08-12T00:02:19.052Z,0.00
2022-08-12T00:03:20.541Z,0.00
2022-08-12T00:04:18.355Z,0.00
2022-08-12T00:05:18.494Z,0.00
2022-08-12T00:06:18.593Z,0.00
2022-08-12T00:07:18.734Z,0.00
2022-08-12T00:08:32.996Z,0.00
2022-08-12T00:09:24.333Z,0.00
2022-08-12T00:10:20.242Z,0.00
2022-08-12T00:11:19.401Z,0.00
2022-08-12T00:12:19.535Z,0.00
2022-08-12T00:13:19.682Z,0.00
2022-08-12T00:14:19.793Z,0.00
2022-08-12T00:15:19.941Z,0.00
2022-08-12T00:16:20.063Z,0.00
2022-08-12T00:17:22.745Z,0.00
2022-08-12T00:18:20.329Z,0.00
2022-08-12T00:19:20.490Z,0.00
2022-08-12T00:20:20.584Z,0.00
2022-08-12T00:21:20.756Z,0.00
2022-08-12T00:22:20.851Z,0.00
2022-08-12T00:23:20.994Z,0.00
2022-08-12T00:24:21.145Z,0.00
2022-08-12T00:25:21.245Z,0.00
2022-08-12T00:26:24.605Z,0.00
2022-08-12T00:27:22.757Z,0.00
2022-08-12T00:28:21.590Z,0.00
2022-08-12T00:29:21.763Z,0.00
2022-08-12T00:30:21.844Z,0.00
2022-08-12T00:31:21.943Z,0.00
2022-08-12T00:32:35.908Z,0.00
2022-08-12T00:33:23.211Z,0.00
2022-08-12T00:34:22.313Z,0.00
2022-08-12T00:35:23.568Z,0.00
2022-08-12T00:36:35.083Z,0.00
2022-08-12T00:37:23.703Z,0.00
2022-08-12T00:38:22.777Z,0.00
2022-08-12T00:39:23.122Z,0.00
2022-08-12T00:40:23.064Z,0.00
2022-08-12T00:41:23.204Z,0.00
2022-08-12T00:42:23.345Z,0.00
2022-08-12T00:43:23.505Z,0.00
2022-08-12T00:44:23.644Z,0.00
2022-08-12T00:45:23.772Z,0.00
2022-08-12T00:46:23.886Z,0.00
2022-08-12T00:47:24.964Z,0.00
2022-08-12T00:48:24.154Z,0.00
2022-08-12T00:49:24.295Z,0.00
2022-08-12T00:50:24.414Z,0.00
2022-08-12T00:51:24.554Z,0.00
2022-08-12T00:52:24.684Z,0.00
2022-08-12T00:53:24.833Z,0.00
2022-08-12T00:54:24.985Z,0.00
2022-08-12T00:55:25.094Z,0.00
2022-08-12T00:56:25.254Z,0.00
2022-08-12T00:57:25.378Z,0.00
2022-08-12T00:58:25.513Z,0.00
2022-08-12T00:59:25.630Z,0.00
2022-08-12T01:00:25.792Z,0.00
2022-08-12T01:01:25.931Z,0.00
2022-08-12T01:02:26.002Z,0.00
2022-08-12T01:03:26.126Z,0.00
2022-08-12T01:04:26.255Z,0.00
2022-08-12T01:05:26.383Z,0.00
2022-08-12T01:06:26.514Z,0.00
2022-08-12T01:07:26.633Z,0.00
2022-08-12T01:08:26.764Z,0.00
2022-08-12T01:09:26.903Z,0.00
2022-08-12T01:10:29.457Z,0.00
2022-08-12T01:11:28.170Z,0.00
2022-08-12T01:12:27.311Z,0.00
2022-08-12T01:13:27.407Z,0.00
2022-08-12T01:14:27.535Z,0.00
2022-08-12T01:15:27.695Z,0.00
2022-08-12T01:16:27.837Z,0.00
2022-08-12T01:17:27.976Z,0.00
2022-08-12T01:18:28.097Z,0.00
2022-08-12T01:19:28.222Z,0.00
2022-08-12T01:20:28.369Z,0.00
2022-08-12T01:21:28.466Z,0.00
2022-08-12T01:22:28.624Z,0.00
2022-08-12T01:23:28.934Z,0.00
2022-08-12T01:24:31.397Z,0.00
2022-08-12T01:25:29.054Z,0.00
2022-08-12T01:26:29.153Z,0.00
2022-08-12T01:27:29.324Z,0.00
2022-08-12T01:28:29.435Z,0.00
2022-08-12T01:29:32.464Z,0.00
2022-08-12T01:30:29.746Z,0.00
2022-08-12T01:31:29.835Z,0.00
2022-08-12T01:32:30.109Z,0.00
2022-08-12T01:33:30.102Z,0.00
2022-08-12T01:34:36.365Z,0.00
2022-08-12T01:35:31.344Z,0.00
2022-08-12T01:36:30.474Z,0.00
2022-08-12T01:37:30.580Z,0.00
2022-08-12T01:38:30.715Z,0.00
2022-08-12T01:39:30.912Z,0.00
2022-08-12T01:40:36.684Z,0.00
2022-08-12T01:41:32.210Z,0.00
2022-08-12T01:42:31.355Z,0.00
2022-08-12T01:43:31.504Z,0.00
2022-08-12T01:44:31.643Z,0.00
2022-08-12T01:45:40.659Z,0.00
2022-08-12T01:46:32.904Z,0.00
2022-08-12T01:47:32.077Z,0.00
2022-08-12T01:48:32.234Z,0.00
2022-08-12T01:49:32.323Z,0.00
2022-08-12T01:50:32.465Z,0.00
2022-08-12T01:52:15.462Z,0.00
2022-08-12T01:52:33.854Z,0.00
2022-08-12T01:53:32.911Z,0.00
2022-08-12T01:54:34.025Z,0.00
2022-08-12T01:55:33.137Z,0.00
2022-08-12T01:56:33.271Z,0.00
2022-08-12T01:57:58.463Z,0.00
2022-08-12T01:58:34.584Z,0.00
2022-08-12T01:59:33.728Z,0.00
2022-08-12T02:00:43.185Z,0.00
2022-08-12T02:01:34.999Z,0.00
2022-08-12T02:02:34.087Z,0.00
2022-08-12T02:03:34.203Z,0.00
2022-08-12T02:04:34.358Z,0.00
2022-08-12T02:05:34.447Z,0.00
2022-08-12T02:06:34.584Z,0.00
2022-08-12T02:07:34.736Z,0.00
2022-08-12T02:08:34.891Z,0.00
2022-08-12T02:09:34.976Z,0.00
2022-08-12T02:10:51.373Z,0.00
2022-08-12T02:11:36.273Z,0.00
2022-08-12T02:12:35.438Z,0.00
2022-08-12T02:13:49.288Z,0.00
2022-08-12T02:14:36.701Z,0.00
2022-08-12T02:15:35.806Z,0.00
2022-08-12T02:16:35.950Z,0.00
2022-08-12T02:17:55.902Z,0.00
2022-08-12T02:18:37.161Z,0.00
2022-08-12T02:19:36.293Z,0.00
2022-08-12T02:20:51.262Z,0.00
2022-08-12T02:21:37.522Z,0.00
2022-08-12T02:22:36.646Z,0.00
2022-08-12T02:23:38.722Z,0.00
2022-08-12T02:24:36.915Z,0.00
2022-08-12T02:25:37.055Z,0.00
2022-08-12T02:26:37.174Z,0.00
2022-08-12T02:27:37.266Z,0.00
2022-08-12T02:28:37.412Z,0.00
2022-08-12T02:29:37.515Z,0.00
2022-08-12T02:30:41.876Z,0.00
2022-08-12T02:31:37.790Z,0.00
2022-08-12T02:32:37.976Z,0.00
2022-08-12T02:33:38.056Z,0.00
2022-08-12T02:34:38.194Z,0.00
2022-08-12T02:35:38.353Z,0.00
2022-08-12T02:36:38.484Z,0.00
2022-08-12T02:37:38.624Z,0.00
2022-08-12T02:38:38.743Z,0.00
2022-08-12T02:39:39.897Z,0.00
2022-08-12T02:40:38.988Z,0.00
2022-08-12T02:41:39.116Z,0.00
2022-08-12T02:42:39.386Z,0.00
2022-08-12T02:43:39.355Z,0.00
2022-08-12T02:44:41.316Z,0.00
2022-08-12T02:45:39.686Z,0.00
2022-08-12T02:46:39.823Z,0.00
2022-08-12T02:47:59.292Z,0.00
2022-08-12T02:48:41.125Z,0.00
2022-08-12T02:49:40.274Z,0.00
2022-08-12T02:50:40.432Z,0.00
2022-08-12T02:51:40.523Z,0.00
2022-08-12T02:52:41.524Z,0.00
2022-08-12T02:53:41.526Z,0.00
2022-08-12T02:54:41.677Z,0.00
2022-08-12T02:55:41.792Z,0.00
2022-08-12T02:56:41.245Z,0.00
2022-08-12T02:57:41.373Z,0.00
2022-08-12T02:58:45.245Z,0.00
2022-08-12T02:59:41.718Z,0.00
2022-08-12T03:00:41.894Z,0.00
2022-08-12T03:01:42.584Z,0.00
2022-08-12T03:02:43.086Z,0.00
2022-08-12T03:03:42.813Z,0.00
2022-08-12T03:04:44.106Z,0.00
2022-08-12T03:05:44.351Z,0.00
2022-08-12T03:06:42.624Z,0.00
2022-08-12T03:07:59.523Z,0.00
2022-08-12T03:08:45.432Z,0.00
2022-08-12T03:10:03.493Z,0.00
2022-08-12T03:10:44.214Z,0.00
2022-08-12T03:11:44.661Z,0.00
2022-08-12T03:12:49.525Z,0.00
2022-08-12T03:13:44.574Z,0.00
2022-08-12T03:14:43.707Z,0.00
2022-08-12T03:15:43.867Z,0.00
2022-08-12T03:16:44.003Z,0.00
2022-08-12T03:17:44.175Z,0.00
2022-08-12T03:18:46.078Z,0.00
2022-08-12T03:20:09.663Z,0.00
2022-08-12T03:20:45.543Z,0.00
2022-08-12T03:21:53.063Z,0.00
2022-08-12T03:22:45.837Z,0.00
2022-08-12T03:23:44.965Z,0.00
2022-08-12T03:24:45.099Z,0.00
2022-08-12T03:25:45.227Z,0.00
2022-08-12T03:26:45.356Z,0.00
2022-08-12T03:27:45.485Z,0.00
2022-08-12T03:28:45.639Z,0.00
2022-08-12T03:29:49.918Z,0.00
2022-08-12T03:30:45.888Z,0.00
2022-08-12T03:31:46.027Z,0.00
2022-08-12T03:32:46.534Z,0.00
2022-08-12T03:34:02.310Z,0.00
2022-08-12T03:34:47.395Z,0.00
2022-08-12T03:35:46.620Z,0.00
2022-08-12T03:36:46.644Z,0.00
2022-08-12T03:37:46.768Z,0.00
2022-08-12T03:38:46.935Z,0.00
2022-08-12T03:39:47.008Z,0.00
2022-08-12T03:40:47.136Z,0.00
2022-08-12T03:41:47.245Z,0.00
2022-08-12T03:42:47.403Z,0.00
2022-08-12T03:43:47.535Z,0.00
2022-08-12T03:44:47.678Z,0.00
2022-08-12T03:45:52.362Z,0.00
2022-08-12T03:46:47.943Z,0.00
2022-08-12T03:47:48.071Z,0.00
2022-08-12T03:48:48.237Z,0.00
2022-08-12T03:49:48.577Z,0.00
2022-08-12T03:50:48.497Z,0.00
2022-08-12T03:51:48.593Z,0.00
2022-08-12T03:52:48.734Z,0.00
2022-08-12T03:53:48.878Z,0.00
2022-08-12T03:54:49.016Z,0.00
2022-08-12T03:55:49.157Z,0.00
2022-08-12T03:56:49.305Z,0.00
2022-08-12T03:57:49.405Z,0.00
2022-08-12T03:58:49.592Z,0.00
2022-08-12T03:59:49.746Z,0.00
2022-08-12T04:00:49.970Z,0.00
2022-08-12T04:01:50.035Z,5.62
2022-08-12T04:02:50.133Z,5.62
2022-08-12T04:03:50.277Z,5.62
2022-08-12T04:04:50.415Z,5.62
2022-08-12T04:05:55.702Z,5.62
2022-08-12T04:06:51.634Z,5.62
2022-08-12T04:07:57.816Z,5.62
2022-08-12T04:08:51.915Z,11.25
2022-08-12T04:09:50.999Z,11.25
2022-08-12T04:10:51.136Z,11.25
2022-08-12T04:11:51.287Z,11.25
2022-08-12T04:12:51.387Z,11.25
2022-08-12T04:13:51.527Z,16.88
2022-08-12T04:14:51.717Z,16.88
2022-08-12T04:15:51.796Z,16.88
2022-08-12T04:16:51.954Z,16.88
2022-08-12T04:18:06.068Z,22.50
2022-08-12T04:18:53.166Z,22.50
2022-08-12T04:19:52.297Z,22.50
2022-08-12T04:20:52.438Z,22.50
2022-08-12T04:22:02.457Z,28.12
2022-08-12T04:22:53.676Z,28.12
2022-08-12T04:23:52.804Z,28.12
2022-08-12T04:24:52.947Z,33.75
2022-08-12T04:25:53.075Z,33.75
2022-08-12T04:26:53.233Z,33.75
2022-08-12T04:27:53.349Z,33.75
2022-08-12T04:28:53.443Z,39.38
2022-08-12T04:30:16.476Z,39.38
2022-08-12T04:30:54.697Z,39.38
2022-08-12T04:31:53.825Z,45.00
2022-08-12T04:32:54.193Z,45.00
2022-08-12T04:33:54.083Z,45.00
2022-08-12T04:34:54.248Z,50.62
2022-08-12T04:35:54.397Z,50.62
2022-08-12T04:36:54.497Z,50.62
2022-08-12T04:37:58.240Z,56.25
2022-08-12T04:38:59.519Z,56.25
2022-08-12T04:39:54.929Z,56.25
2022-08-12T04:40:55.024Z,61.88
2022-08-12T04:41:58.241Z,61.88
2022-08-12T04:42:55.314Z,61.88
2022-08-12T04:44:02.193Z,67.50
2022-08-12T04:44:56.605Z,67.50
2022-08-12T04:45:55.665Z,67.50
2022-08-12T04:46:55.794Z,73.12
2022-08-12T04:47:55.947Z,73.12
2022-08-12T04:48:56.047Z,73.12
2022-08-12T04:49:56.198Z,78.75
2022-08-12T04:50:56.338Z,78.75
2022-08-12T04:51:59.044Z,78.75
2022-08-12T04:52:56.534Z,84.38
2022-08-12T04:53:56.649Z,84.38
2022-08-12T04:54:56.757Z,84.38
2022-08-12T04:55:56.911Z,84.38
2022-08-12T04:57:04.055Z,90.00
2022-08-12T04:57:58.134Z,90.00
2022-08-12T04:58:57.256Z,90.00
2022-08-12T04:59:57.384Z,95.62
2022-08-12T05:00:57.463Z,95.62
2022-08-12T05:01:57.746Z,95.62
2022-08-12T05:02:57.829Z,95.62
2022-08-12T05:03:57.836Z,101.25
2022-08-12T05:05:00.699Z,101.25
2022-08-12T05:05:58.103Z,101.25
2022-08-12T05:06:58.224Z,101.25
2022-08-12T05:07:58.324Z,106.88
2022-08-12T05:08:58.410Z,106.88
2022-08-12T05:09:59.847Z,106.88
2022-08-12T05:10:58.696Z,106.88
2022-08-12T05:11:58.816Z,112.50
2022-08-12T05:12:58.923Z,112.50
2022-08-12T05:13:59.049Z,112.50
2022-08-12T05:14:59.143Z,112.50
2022-08-12T05:16:05.425Z,112.50
2022-08-12T05:17:00.405Z,118.12
2022-08-12T05:18:00.159Z,118.12
2022-08-12T05:19:00.684Z,118.12
2022-08-12T05:19:59.823Z,118.12
2022-08-12T05:20:59.939Z,123.75
2022-08-12T05:22:00.085Z,123.75
2022-08-12T05:23:07.449Z,123.75
2022-08-12T05:24:01.303Z,123.75
2022-08-12T05:25:00.454Z,123.75
2022-08-12T05:26:00.566Z,129.38
2022-08-12T05:27:00.692Z,129.38
2022-08-12T05:28:00.857Z,129.38
2022-08-12T05:29:00.974Z,129.38
2022-08-12T05:30:06.721Z,129.38
2022-08-12T05:31:02.205Z,135.00
2022-08-12T05:32:01.336Z,135.00
2022-08-12T05:33:01.487Z,135.00
2022-08-12T05:34:01.616Z,135.00
2022-08-12T05:35:01.686Z,135.00
2022-08-12T05:36:01.833Z,140.62
2022-08-12T05:37:01.938Z,140.62
2022-08-12T05:38:02.074Z,140.62
2022-08-12T05:39:02.225Z,140.62
2022-08-12T05:40:05.622Z,140.62
2022-08-12T05:41:03.427Z,140.62
2022-08-12T05:42:02.567Z,140.62
2022-08-12T05:43:02.706Z,146.25
2022-08-12T05:44:02.857Z,146.25
2022-08-12T05:45:02.968Z,146.25
2022-08-12T05:46:03.148Z,146.25
2022-08-12T05:47:03.246Z,146.25
2022-08-12T05:48:03.337Z,146.25
2022-08-12T05:49:03.459Z,151.88
2022-08-12T05:50:03.569Z,151.88
2022-08-12T05:51:04.437Z,151.88
2022-08-12T05:52:03.824Z,151.88
2022-08-12T05:53:03.904Z,151.88
2022-08-12T05:54:04.070Z,151.88
2022-08-12T05:55:04.245Z,157.50
2022-08-12T05:56:04.348Z,157.50
2022-08-12T05:57:04.416Z,157.50
2022-08-12T05:58:04.751Z,157.50
2022-08-12T05:59:04.713Z,157.50
2022-08-12T06:00:04.830Z,157.50
2022-08-12T06:02:09.529Z,157.50
2022-08-12T06:02:10.418Z,157.50
2022-08-12T06:03:06.329Z,163.12
2022-08-12T06:04:05.298Z,163.12
2022-08-12T06:05:05.363Z,163.12
2022-08-12T06:06:05.512Z,163.12
2022-08-12T06:08:00.076Z,163.12
2022-08-12T06:08:06.785Z,163.12
2022-08-12T06:09:05.917Z,163.12
2022-08-12T06:10:06.044Z,168.75
2022-08-12T06:11:06.137Z,168.75
2022-08-12T06:12:06.746Z,168.75
2022-08-12T06:13:06.395Z,168.75
2022-08-12T06:14:11.879Z,168.75
2022-08-12T06:15:07.657Z,168.75
2022-08-12T06:16:06.797Z,168.75
2022-08-12T06:17:06.895Z,168.75
2022-08-12T06:18:13.603Z,174.38
2022-08-12T06:19:08.154Z,174.38
2022-08-12T06:20:28.138Z,174.38
2022-08-12T06:21:08.418Z,174.38
2022-08-12T06:22:07.568Z,174.38
2022-08-12T06:23:07.643Z,174.38
2022-08-12T06:24:07.785Z,174.38
2022-08-12T06:25:07.917Z,174.38
2022-08-12T06:26:08.064Z,180.00
2022-08-12T06:27:08.204Z,180.00
2022-08-12T06:28:08.569Z,180.00
2022-08-12T06:29:08.487Z,180.00
2022-08-12T06:30:12.752Z,180.00
2022-08-12T06:31:26.688Z,180.00
2022-08-12T06:32:09.940Z,180.00
2022-08-12T06:33:22.591Z,185.62
2022-08-12T06:35:23.705Z,185.62
2022-08-12T06:35:26.330Z,185.62
2022-08-12T06:36:10.354Z,185.62
2022-08-12T06:37:09.427Z,185.62
2022-08-12T06:38:09.578Z,185.62
2022-08-12T06:39:14.350Z,191.25
2022-08-12T06:40:10.805Z,191.25
2022-08-12T06:41:09.946Z,191.25
2022-08-12T06:42:32.332Z,191.25
2022-08-12T06:43:11.266Z,191.25
2022-08-12T06:44:10.368Z,191.25
2022-08-12T06:45:12.499Z,196.88
2022-08-12T06:46:10.687Z,196.88
2022-08-12T06:47:10.758Z,196.88
2022-08-12T06:48:10.904Z,196.88
2022-08-12T06:49:11.046Z,196.88
2022-08-12T06:50:11.242Z,196.88
2022-08-12T06:51:11.307Z,202.50
2022-08-12T06:52:11.418Z,202.50
2022-08-12T06:53:11.618Z,202.50
2022-08-12T06:54:11.698Z,202.50
2022-08-12T06:55:11.797Z,202.50
2022-08-12T06:56:12.652Z,208.12
2022-08-12T06:58:08.149Z,208.12
2022-08-12T06:58:13.958Z,208.12
2022-08-12T06:59:12.347Z,208.12
2022-08-12T07:00:12.435Z,208.12
2022-08-12T07:01:12.728Z,213.75
2022-08-12T07:02:12.728Z,213.75
2022-08-12T07:03:22.761Z,213.75
2022-08-12T07:04:35.772Z,213.75
2022-08-12T07:05:14.057Z,219.38
2022-08-12T07:06:13.190Z,219.38
2022-08-12T07:07:13.367Z,219.38
2022-08-12T07:08:13.464Z,219.38
2022-08-12T07:09:55.750Z,219.38
2022-08-12T07:10:14.697Z,219.38
2022-08-12T07:11:15.464Z,225.00
2022-08-12T07:12:13.934Z,225.00
2022-08-12T07:13:14.048Z,230.62
2022-08-12T07:14:14.171Z,236.25
2022-08-12T07:15:14.255Z,236.25
2022-08-12T07:16:14.399Z,241.88
2022-08-12T07:17:14.551Z,241.88
2022-08-12T07:18:14.668Z,236.25
2022-08-12T07:19:14.779Z,247.50
2022-08-12T07:20:42.659Z,247.50
2022-08-12T07:21:16.008Z,247.50
2022-08-12T07:22:15.148Z,253.12
2022-08-12T07:23:15.260Z,253.12
2022-08-12T07:24:15.416Z,253.12
2022-08-12T07:25:15.508Z,258.75
2022-08-12T07:26:15.649Z,258.75
2022-08-12T07:27:15.759Z,258.75
2022-08-12T07:28:16.605Z,264.38
2022-08-12T07:29:16.005Z,264.38
2022-08-12T07:30:16.149Z,270.00
2022-08-12T07:31:17.271Z,270.00
2022-08-12T07:32:16.394Z,281.25
2022-08-12T07:33:16.471Z,326.25
2022-08-12T07:34:16.618Z,360.00
2022-08-12T07:35:16.733Z,371.25
2022-08-12T07:36:16.871Z,360.00
2022-08-12T07:37:17.028Z,354.38
2022-08-12T07:38:17.148Z,365.62
2022-08-12T07:39:18.330Z,376.88
2022-08-12T07:40:17.449Z,388.12
2022-08-12T07:41:17.521Z,365.62
2022-08-12T07:42:17.660Z,315.00
2022-08-12T07:43:17.809Z,286.88
2022-08-12T07:44:17.923Z,286.88
2022-08-12T07:45:18.031Z,286.88
2022-08-12T07:46:18.180Z,286.88
2022-08-12T07:47:18.290Z,286.88
2022-08-12T07:48:18.443Z,286.88
2022-08-12T07:49:18.537Z,286.88
2022-08-12T07:50:23.425Z,292.50
2022-08-12T07:51:25.476Z,292.50
2022-08-12T07:52:19.955Z,292.50
2022-08-12T07:53:19.041Z,292.50
2022-08-12T07:54:19.190Z,292.50
2022-08-12T07:55:19.331Z,292.50
2022-08-12T07:56:19.479Z,298.12
2022-08-12T07:57:19.592Z,298.12
2022-08-12T07:58:19.761Z,298.12
2022-08-12T07:59:19.840Z,298.12
2022-08-12T08:00:20.009Z,298.12
2022-08-12T08:01:20.148Z,303.75
2022-08-12T08:02:20.243Z,303.75
2022-08-12T08:03:21.373Z,303.75
2022-08-12T08:04:20.513Z,303.75
2022-08-12T08:05:20.621Z,303.75
2022-08-12T08:06:21.021Z,309.38
2022-08-12T08:07:20.891Z,309.38
2022-08-12T08:08:21.031Z,309.38
2022-08-12T08:09:21.206Z,309.38
2022-08-12T08:10:21.337Z,315.00
2022-08-12T08:11:21.470Z,315.00
2022-08-12T08:12:21.570Z,315.00
2022-08-12T08:13:21.684Z,320.62
2022-08-12T08:14:21.856Z,326.25
2022-08-12T08:15:33.724Z,326.25
2022-08-12T08:16:23.054Z,326.25
2022-08-12T08:17:22.184Z,326.25
2022-08-12T08:18:26.503Z,326.25
2022-08-12T08:19:23.444Z,326.25
2022-08-12T08:20:22.618Z,331.88
2022-08-12T08:21:22.765Z,331.88
2022-08-12T08:22:40.475Z,337.50
2022-08-12T08:23:29.336Z,337.50
2022-08-12T08:24:24.102Z,343.12
2022-08-12T08:25:37.123Z,360.00
2022-08-12T08:26:24.334Z,371.25
2022-08-12T08:27:23.464Z,376.88
2022-08-12T08:28:23.615Z,388.12
2022-08-12T08:29:23.723Z,388.12
2022-08-12T08:30:23.883Z,393.75
2022-08-12T08:31:23.974Z,393.75
2022-08-12T08:32:24.124Z,405.00
2022-08-12T08:34:04.226Z,405.00
2022-08-12T08:34:27.615Z,410.62
2022-08-12T08:35:26.078Z,410.62
2022-08-12T08:36:25.637Z,410.62
2022-08-12T08:37:24.723Z,399.38
2022-08-12T08:38:33.352Z,393.75
2022-08-12T08:39:25.985Z,393.75
2022-08-12T08:40:25.105Z,393.75
2022-08-12T08:42:18.805Z,388.12
2022-08-12T08:42:26.373Z,382.50
2022-08-12T08:43:25.505Z,382.50
2022-08-12T08:44:26.616Z,382.50
2022-08-12T08:45:25.742Z,388.12
2022-08-12T08:46:25.909Z,388.12
2022-08-12T08:47:26.068Z,388.12
2022-08-12T08:48:26.145Z,388.12
2022-08-12T08:49:26.233Z,388.12
2022-08-12T08:50:26.377Z,388.12
2022-08-12T08:51:26.619Z,393.75
2022-08-12T08:52:40.300Z,393.75
2022-08-12T08:53:27.755Z,399.38
2022-08-12T08:54:26.897Z,399.38
2022-08-12T08:55:42.415Z,399.38
2022-08-12T08:56:28.187Z,405.00
2022-08-12T08:57:27.266Z,405.00
2022-08-12T08:58:28.389Z,405.00
2022-08-12T08:59:27.524Z,410.62
2022-08-12T09:00:27.655Z,410.62
2022-08-12T09:01:37.560Z,410.62
2022-08-12T09:02:28.937Z,416.25
2022-08-12T09:05:08.434Z,421.88
2022-08-12T09:05:13.105Z,427.50
2022-08-12T09:06:02.524Z,433.12
2022-08-12T09:06:37.093Z,433.12
2022-08-12T09:07:51.806Z,438.75
2022-08-12T09:08:29.744Z,444.38
2022-08-12T09:10:01.662Z,450.00
2022-08-12T09:10:30.691Z,455.62
2022-08-12T09:12:11.111Z,461.25
2022-08-12T09:12:30.176Z,461.25
2022-08-12T09:14:30.441Z,472.50
2022-08-12T09:15:35.019Z,472.50
2022-08-12T09:16:30.686Z,478.12
2022-08-12T09:17:52.390Z,483.75
2022-08-12T09:18:33.580Z,483.75
2022-08-12T09:19:30.108Z,495.00
2022-08-12T09:20:30.207Z,500.62
2022-08-12T09:21:30.360Z,545.62
2022-08-12T09:22:31.484Z,832.50
2022-08-12T09:23:59.488Z,1558.12
2022-08-12T09:24:31.966Z,1451.25
2022-08-12T09:26:31.993Z,731.25
2022-08-12T09:28:04.073Z,697.50
2022-08-12T09:28:32.327Z,691.88
2022-08-12T09:30:10.587Z,658.12
2022-08-12T09:30:42.198Z,635.62
2022-08-12T09:32:06.693Z,624.38
2022-08-12T09:33:04.641Z,630.00
2022-08-12T09:34:29.213Z,613.12
2022-08-12T09:34:33.077Z,607.50
2022-08-12T09:35:32.173Z,613.12
2022-08-12T09:37:00.835Z,596.25
2022-08-12T09:37:57.922Z,596.25
2022-08-12T09:38:35.630Z,613.12
2022-08-12T09:40:05.534Z,613.12
2022-08-12T09:41:02.186Z,607.50
2022-08-12T09:42:34.060Z,624.38
2022-08-12T09:42:42.605Z,635.62
2022-08-12T09:43:34.294Z,646.88
2022-08-12T09:44:39.365Z,669.38
2022-08-12T09:46:11.275Z,669.38
2022-08-12T09:46:34.935Z,691.88
2022-08-12T09:47:33.754Z,675.00
2022-08-12T09:48:35.020Z,675.00
2022-08-12T09:49:37.183Z,697.50
2022-08-12T09:50:35.089Z,703.12
2022-08-12T09:51:37.755Z,742.50
2022-08-12T09:52:35.378Z,770.62
2022-08-12T09:53:36.431Z,742.50
2022-08-12T09:54:35.593Z,759.38
2022-08-12T09:55:59.659Z,810.00
2022-08-12T09:57:00.128Z,798.75
2022-08-12T09:58:08.145Z,821.25
2022-08-12T09:58:57.854Z,894.38
2022-08-12T10:00:12.845Z,922.50
2022-08-12T10:00:48.886Z,922.50
2022-08-12T10:02:44.949Z,1215.00
2022-08-12T10:02:45.375Z,956.25
2022-08-12T10:03:36.809Z,1676.25
2022-08-12T10:04:36.908Z,2362.50
2022-08-12T10:06:19.559Z,2812.50
2022-08-12T10:06:54.315Z,2334.38
2022-08-12T10:07:39.780Z,1833.75
2022-08-12T10:08:36.374Z,1777.50
2022-08-12T10:09:58.185Z,1732.50
2022-08-12T10:10:42.339Z,2199.38
2022-08-12T10:12:11.819Z,2643.75
2022-08-12T10:12:37.907Z,2368.12
2022-08-12T10:13:41.941Z,2143.12
2022-08-12T10:14:38.143Z,2250.00
2022-08-12T10:16:01.707Z,2210.62
2022-08-12T10:16:39.636Z,2019.38
2022-08-12T10:17:56.645Z,1980.00
2022-08-12T10:18:51.614Z,2283.75
2022-08-12T10:19:38.756Z,2351.25
2022-08-12T10:20:37.911Z,2109.38
2022-08-12T10:21:38.095Z,2058.75
2022-08-12T10:22:40.100Z,2193.75
2022-08-12T10:23:40.457Z,2221.88
2022-08-12T10:24:38.406Z,2103.75
2022-08-12T10:26:34.915Z,2070.00
2022-08-12T10:26:40.408Z,2199.38
2022-08-12T10:27:39.562Z,2227.50
2022-08-12T10:28:39.893Z,2340.00
2022-08-12T10:30:03.668Z,2317.50
2022-08-12T10:30:46.879Z,2120.62
2022-08-12T10:31:47.371Z,2058.75
2022-08-12T10:32:44.431Z,2025.00
2022-08-12T10:33:54.056Z,2098.12
2022-08-12T10:34:40.806Z,2452.50
2022-08-12T10:35:40.918Z,2497.50
2022-08-12T10:36:42.822Z,2221.88
2022-08-12T10:38:33.284Z,2323.12
2022-08-12T10:38:44.040Z,2480.62
2022-08-12T10:40:01.481Z,2745.00
2022-08-12T10:40:41.497Z,2958.75
2022-08-12T10:41:56.865Z,2885.62
2022-08-12T10:42:46.125Z,2745.00
2022-08-12T10:43:56.576Z,2418.75
2022-08-12T10:44:41.962Z,2283.75
2022-08-12T10:45:41.096Z,2407.50
2022-08-12T10:46:41.197Z,2351.25
2022-08-12T10:48:19.007Z,2103.75
2022-08-12T10:48:42.448Z,2210.62
2022-08-12T10:50:03.457Z,2266.88
2022-08-12T10:51:01.740Z,2317.50
2022-08-12T10:52:03.443Z,2497.50
2022-08-12T10:52:42.970Z,2508.75
2022-08-12T10:53:44.054Z,2390.62
2022-08-12T10:54:42.227Z,2340.00
2022-08-12T10:55:42.381Z,2390.62
2022-08-12T10:56:42.500Z,2441.25
2022-08-12T10:58:15.325Z,2413.12
2022-08-12T10:58:46.340Z,2238.75
2022-08-12T11:00:30.331Z,2413.12
2022-08-12T11:00:45.348Z,2655.00
2022-08-12T11:04:18.337Z,3054.38
2022-08-12T11:04:25.739Z,2958.75
2022-08-12T11:04:28.131Z,2795.62
2022-08-12T11:04:48.992Z,2868.75
2022-08-12T11:07:05.912Z,2671.88
2022-08-12T11:07:08.462Z,2441.25
2022-08-12T11:08:35.906Z,2722.50
2022-08-12T11:08:46.498Z,2812.50
2022-08-12T11:09:59.803Z,2688.75
2022-08-12T11:10:45.670Z,2818.12
2022-08-12T11:12:36.949Z,2857.50
2022-08-12T11:12:59.529Z,2806.88
2022-08-12T11:13:48.968Z,2941.88
2022-08-12T11:14:50.374Z,2728.12
2022-08-12T11:16:19.856Z,2525.62
2022-08-12T11:17:06.470Z,2953.12
2022-08-12T11:17:53.916Z,2947.50
2022-08-12T11:18:46.408Z,2964.38
2022-08-12T11:19:46.573Z,3121.88
2022-08-12T11:20:45.660Z,2795.62
2022-08-12T11:21:57.537Z,2880.00
2022-08-12T11:22:58.661Z,3217.50
2022-08-12T11:23:53.557Z,3161.25
2022-08-12T11:24:51.313Z,3093.75
2022-08-12T11:25:57.684Z,2913.75
2022-08-12T11:26:47.492Z,3015.00
2022-08-12T11:27:46.579Z,2947.50
2022-08-12T11:28:50.476Z,2975.62
2022-08-12T11:30:05.278Z,2716.88
2022-08-12T11:30:47.960Z,2598.75
2022-08-12T11:32:01.736Z,2778.75
2022-08-12T11:32:48.244Z,3161.25
2022-08-12T11:34:05.050Z,2745.00
2022-08-12T11:34:52.824Z,2874.38
2022-08-12T11:35:48.659Z,3150.00
2022-08-12T11:36:47.749Z,3054.38
2022-08-12T11:37:59.142Z,2835.00
2022-08-12T11:38:50.733Z,3155.62
2022-08-12T11:40:49.261Z,3093.75
2022-08-12T11:41:48.412Z,3048.75
2022-08-12T11:42:48.709Z,3346.88
2022-08-12T11:43:57.979Z,3386.25
2022-08-12T11:44:49.750Z,3352.50
2022-08-12T11:45:52.936Z,3155.62
2022-08-12T11:46:51.184Z,3240.00
2022-08-12T11:47:49.286Z,3313.12
2022-08-12T11:48:51.443Z,3526.88
2022-08-12T11:49:52.026Z,3150.00
2022-08-12T11:50:49.532Z,3121.88
2022-08-12T11:51:57.795Z,3538.12
2022-08-12T11:52:56.274Z,3301.88
2022-08-12T11:53:57.152Z,3105.00
2022-08-12T11:54:51.359Z,3290.62
2022-08-12T11:55:50.185Z,3380.62
2022-08-12T11:56:59.543Z,3346.88
2022-08-12T11:58:48.890Z,3363.75
2022-08-12T12:01:58.392Z,3268.12
2022-08-12T12:02:01.924Z,3262.50
2022-08-12T12:02:52.155Z,3138.75
2022-08-12T12:03:51.208Z,3380.62
2022-08-12T12:04:52.267Z,3768.75
2022-08-12T12:05:51.511Z,3110.62
2022-08-12T12:06:53.030Z,3121.88
2022-08-12T12:08:38.417Z,3223.12
2022-08-12T12:08:53.695Z,3391.88
2022-08-12T12:09:53.855Z,3397.50
2022-08-12T12:10:52.866Z,3279.38
2022-08-12T12:11:52.274Z,3251.25
2022-08-12T12:12:57.040Z,3459.38
2022-08-12T12:14:08.250Z,3386.25
2022-08-12T12:14:54.205Z,3414.38
2022-08-12T12:15:53.069Z,3571.88
2022-08-12T12:16:52.948Z,3442.50
2022-08-12T12:17:55.785Z,3684.38
2022-08-12T12:18:53.197Z,3847.50
2022-08-12T12:19:53.385Z,3560.62
2022-08-12T12:20:53.411Z,3470.62
2022-08-12T12:21:53.537Z,3487.50
2022-08-12T12:22:53.666Z,3436.88
2022-08-12T12:23:53.779Z,3549.38
2022-08-12T12:24:54.901Z,3403.12
2022-08-12T12:26:06.994Z,3690.00
2022-08-12T12:27:00.357Z,3841.88
2022-08-12T12:28:04.147Z,3751.88
2022-08-12T12:28:55.441Z,3768.75
2022-08-12T12:30:18.137Z,3785.62
2022-08-12T12:30:55.701Z,3453.75
2022-08-12T12:32:11.525Z,3577.50
2022-08-12T12:32:55.995Z,3678.75
2022-08-12T12:33:58.318Z,3549.38
2022-08-12T12:35:44.268Z,3408.75
2022-08-12T12:36:16.541Z,3414.38
2022-08-12T12:36:56.467Z,3510.00
2022-08-12T12:38:04.207Z,3757.50
2022-08-12T12:38:56.697Z,3751.88
2022-08-12T12:39:55.874Z,3813.75
2022-08-12T12:40:55.975Z,3706.88
2022-08-12T12:42:52.099Z,3577.50
2022-08-12T12:43:03.118Z,3543.75
2022-08-12T12:44:04.342Z,3465.00
2022-08-12T12:44:57.487Z,3560.62
2022-08-12T12:45:56.628Z,3768.75
2022-08-12T12:46:56.769Z,3892.50